Flight Track Log - Related Links

Times and Time Zones

All times are in EDT time to prevent confusion due to time zone crossing. See the EJA839 flight status page for this flight to view local times or setup timezone preferences in your user account.

Time Position Orientation Groundspeed Altitude Reporting Facility
EDT Latitude Longitude Course Direction KTS MPH feet Rate Location/Type
05:08PM 39.6333 -104.8667 360° North 228 262 8,000  Level Denver TRACON
05:09PM 39.6833 -104.8667 360° North 242 278 9,900 2,263 Climbing Denver TRACON
05:10PM 39.7667 -104.8333 17° North 296 341 12,300 2,708 Climbing Denver TRACON
05:11PM 39.8250 -104.7892 30° Northeast 306 352 15,000 2,922 Climbing Denver Center
05:12PM 39.9042 -104.7322 29° Northeast 317 365 17,900 2,661 Climbing Denver Center
05:13PM 39.9675 -104.6847 30° Northeast 310 357 20,500 2,304 Climbing Denver Center
05:14PM 40.0667 -104.6167 28° Northeast 346 398 22,700 1,220 Climbing Denver TRACON
05:15PM 40.1667 -104.5500 27° Northeast 397 457 23,000 195 Climbing Denver TRACON
05:16PM 40.2581 -104.4731 33° Northeast 385 443 23,100 528 Climbing Denver Center
05:17PM 40.3578 -104.3964 30° Northeast 384 442 24,100 1,016 Climbing Denver Center
05:18PM 40.4539 -104.3264 29° Northeast 387 445 25,200 1,016 Climbing Denver Center
05:19PM 40.5525 -104.2547 29° Northeast 398 458 26,200 968 Climbing Denver Center
05:20PM 40.6378 -104.1583 41° Northeast 393 452 27,200 968 Climbing Denver Center
05:21PM 40.7203 -104.0514 44° Northeast 412 474 28,200 968 Climbing Denver Center
05:22PM 40.8028 -103.9478 44° Northeast 407 468 29,200 1,016 Climbing Denver Center
05:23PM 40.8722 -103.8228 54° Northeast 422 486 30,300 1,016 Climbing Denver Center
05:24PM 40.9336 -103.6853 59° Northeast 429 494 31,300 919 Climbing Denver Center
05:25PM 40.9856 -103.5686 59° Northeast 431 496 32,200 1,016 Climbing Denver Center
05:26PM 41.0625 -103.3917 60° Northeast 435 501 33,400 1,161 Climbing Denver Center
05:27PM 41.1303 -103.2369 60° Northeast 435 501 34,600 774 Climbing Denver Center
05:28PM 41.1875 -103.1044 60° Northeast 433 498 35,000 194 Climbing Denver Center
05:29PM 41.2372 -102.9906 60° Northeast 443 510 35,000  Level Denver Center
05:30PM 41.3056 -102.8306 60° Northeast 446 513 35,000  Level Denver Center
05:31PM 41.3736 -102.6725 60° Northeast 443 510 35,000  Level Denver Center
05:32PM 41.4411 -102.5156 60° Northeast 444 511 35,000  Level Denver Center
05:33PM 41.4989 -102.3781 61° Northeast 444 511 35,000  Level Denver Center
05:35PM 41.5672 -102.2164 60° Northeast 447 514 35,000  Level Denver Center
05:36PM 41.6150 -102.1003 61° Northeast 447 514 35,000  Level Denver Center
05:37PM 41.6939 -101.9158 60° Northeast 448 516 35,000  Level Denver Center
05:38PM 41.7497 -101.7789 61° Northeast 441 507 35,000  Level Denver Center
05:39PM 41.8156 -101.6181 61° Northeast 441 507 35,000  Level Denver Center
05:40PM 41.8736 -101.4789 61° Northeast 443 510 35,000  Level Denver Center
05:41PM 41.9389 -101.3167 62° Northeast 442 509 35,000  Level Denver Center
05:42PM 41.9953 -101.1781 61° Northeast 441 507 35,000  Level Denver Center
05:43PM 42.0603 -101.0181 61° Northeast 435 501 35,000  Level Denver Center
05:44PM 42.1169 -100.8786 61° Northeast 441 507 35,000  Level Denver Center
05:45PM 42.1725 -100.7397 62° Northeast 439 505 35,000  Level Denver Center
05:46PM 42.2361 -100.5786 62° Northeast 435 501 35,000  Level Denver Center
05:47PM 42.2919 -100.4386 62° Northeast 440 506 35,000  Level Denver Center
05:48PM 42.3569 -100.2747 62° Northeast 441 507 35,000  Level Denver Center
05:49PM 42.4139 -100.1297 62° Northeast 442 509 35,000  Level Minneapolis Center
05:50PM 42.4708 -99.9828 62° Northeast 441 507 35,000  Level Minneapolis Center
05:51PM 42.5286 -99.8336 62° Northeast 443 510 35,000  Level Denver Center
05:52PM 42.5864 -99.6858 62° Northeast 446 513 35,000  Level Minneapolis Center
05:53PM 42.6539 -99.5083 63° Northeast 443 510 35,000  Level Minneapolis Center
05:54PM 42.6994 -99.3886 63° Northeast 444 511 35,000  Level Minneapolis Center
05:55PM 42.7678 -99.2114 62° Northeast 442 509 35,000  Level Minneapolis Center
05:56PM 42.8119 -99.0931 63° Northeast 441 507 35,000  Level Minneapolis Center
05:57PM 42.8811 -98.9119 62° Northeast 438 504 35,000  Level Minneapolis Center
05:58PM 42.9353 -98.7647 63° Northeast 436 502 35,000  Level Minneapolis Center
05:59PM 42.9900 -98.6175 63° Northeast 436 502 35,000  Level Minneapolis Center
06:00PM 43.0550 -98.4417 63° Northeast 434 499 35,000  Level Minneapolis Center
06:01PM 43.1078 -98.2958 64° Northeast 432 497 35,000  Level Minneapolis Center
06:02PM 43.1611 -98.1483 64° Northeast 433 498 35,000  Level Minneapolis Center
06:03PM 43.2150 -98.0008 63° Northeast 433 498 35,000  Level Minneapolis Center
06:04PM 43.2675 -97.8533 64° Northeast 433 498 35,000  Level Minneapolis Center
06:06PM 43.3222 -97.7058 63° Northeast 434 499 35,000  Level Minneapolis Center
06:07PM 43.3761 -97.5561 64° Northeast 437 503 35,000  Level Minneapolis Center
06:08PM 43.4386 -97.3750 65° Northeast 438 504 35,000  Level Minneapolis Center
06:09PM 43.4981 -97.2314 60° Northeast 437 503 35,000  Level Minneapolis Center
06:10PM 43.5772 -97.1106 48° Northeast 426 490 35,000  Level Minneapolis Center
06:11PM 43.6525 -96.9867 50° Northeast 423 487 35,000 -242 Level Minneapolis Center
06:12PM 43.7292 -96.8625 49° Northeast 424 488 34,500 -629 Descending Minneapolis Center
06:13PM 43.8044 -96.7406 49° Northeast 420 483 33,700 -927 Descending Minneapolis Center
06:14PM 43.8933 -96.5958 50° Northeast 411 473 32,600 -1,024 Descending Minneapolis Center
06:15PM 43.9639 -96.4792 50° Northeast 399 459 31,600 -1,113 Descending Minneapolis Center
06:16PM 44.0375 -96.3575 50° Northeast 411 473 30,300 -1,355 Descending Minneapolis Center
06:17PM 44.1086 -96.2408 50° Northeast 404 465 28,800 -1,279 Descending Minneapolis Center
06:18PM 44.1806 -96.1217 50° Northeast 394 453 27,400 -1,368 Descending Minneapolis Center
06:19PM 44.2694 -95.9722 50° Northeast 389 448 25,700 -1,548 Descending Minneapolis Center
06:20PM 44.3372 -95.8581 50° Northeast 385 443 24,200 -1,548 Descending Minneapolis Center
06:21PM 44.4056 -95.7433 50° Northeast 386 444 22,500 -1,610 Descending Minneapolis Center
06:22PM 44.4706 -95.6339 50° Northeast 374 430 20,900 -1,415 Descending Minneapolis Center
06:23PM 44.5342 -95.5250 51° Northeast 365 420 19,600 -1,210 Descending Minneapolis Center
06:24PM 44.6011 -95.3842 56° Northeast 364 419 18,400 -1,113 Descending Minneapolis Center
06:25PM 44.6286 -95.2422 75° East 373 429 17,300 -1,016 Descending Minneapolis Center
06:26PM 44.6575 -95.1061 73° East 367 422 16,300 -926 Descending Minneapolis Center
06:28PM 44.6847 -94.9714 74° East 362 417 15,200 -1,059 Descending Minneapolis Center
06:29PM 44.7192 -94.8122 73° East 357 411 13,900 -1,258 Descending Minneapolis Center
06:30PM 44.7444 -94.6858 74° East 343 395 12,600 -1,161 Descending Minneapolis Center
06:31PM 44.7731 -94.5492 74° East 332 382 11,500 -1,229 Descending Minneapolis Center
06:31PM 44.7875 -94.5011 67° East 310 357 10,900 -1,317 Descending FAA TRACON SMA TRACON (SMA)
06:31PM 44.7958 -94.4678 71° East 298 343 10,600 -900 Descending FAA TRACON SMA TRACON (SMA)
06:32PM 44.8022 -94.4353 75° East 286 329 10,300 -1,050 Descending FAA TRACON SMA TRACON (SMA)
06:32PM 44.8092 -94.3933 77° East 282 325 9,900 -1,050 Descending FAA TRACON SMA TRACON (SMA)
06:32PM 44.8164 -94.3603 73° East 285 328 9,600 -900 Descending FAA TRACON SMA TRACON (SMA)
06:33PM 44.8222 -94.3269 76° East 286 329 9,300 -1,050 Descending FAA TRACON SMA TRACON (SMA)
06:33PM 44.8303 -94.2864 74° East 283 326 8,900 -1,050 Descending FAA TRACON SMA TRACON (SMA)
06:33PM 44.8358 -94.2547 76° East 274 315 8,600 -900 Descending FAA TRACON SMA TRACON (SMA)
06:34PM 44.8428 -94.2228 73° East 273 314 8,300 -900 Descending FAA TRACON SMA TRACON (SMA)
06:34PM 44.8511 -94.1831 74° East 274 315 8,000 -450 Descending FAA TRACON SMA TRACON (SMA)
06:34PM 44.8575 -94.1517 74° East 272 313 8,000 -150 Level FAA TRACON SMA TRACON (SMA)
06:35PM 44.8653 -94.1228 69° East 265 305 7,900 -750 Descending FAA TRACON SMA TRACON (SMA)
06:35PM 44.8681 -94.0850 84° East 254 292 7,500 -1,317 Descending FAA TRACON SMA TRACON (SMA)
06:35PM 44.8653 -94.0539 97° East 256 295 7,000 -1,535 Descending FAA TRACON SMA TRACON (SMA)
06:36PM 44.8636 -94.0228 94° East 260 299 6,400 -1,674 Descending FAA TRACON SMA TRACON (SMA)
06:36PM 44.8608 -93.9828 96° East 264 304 5,800 -1,737 Descending FAA TRACON SMA TRACON (SMA)
06:36PM 44.8589 -93.9517 95° East 263 303 5,300 -1,607 Descending FAA TRACON SMA TRACON (SMA)
06:37PM 44.8542 -93.8811 95° East 259 298 4,300 -1,322 Descending FAA TRACON SMA TRACON (SMA)
06:37PM 44.8525 -93.8511 94° East 254 292 4,000 -600 Descending FAA TRACON SMA TRACON (SMA)
06:38PM 44.8511 -93.8219 94° East 244 281 3,900  Descending FAA TRACON SMA TRACON (SMA)
06:38PM 44.8478 -93.7881 98° East 228 262 4,000  Climbing FAA TRACON SMA TRACON (SMA)
06:38PM 44.8475 -93.7617 91° East 219 252 3,900 -150 Descending FAA TRACON SMA TRACON (SMA)
06:39PM 44.8456 -93.7358 96° East 218 251 3,900  Level FAA TRACON SMA TRACON (SMA)
06:39PM 44.8433 -93.7031 95° East 217 250 3,900 -600 Level FAA TRACON SMA TRACON (SMA)
06:39PM 44.8414 -93.6772 96° East 216 249 3,500 -1,350 Descending FAA TRACON SMA TRACON (SMA)
06:40PM 44.8397 -93.6508 95° East 217 250 3,000 -1,500 Descending FAA TRACON SMA TRACON (SMA)
06:40PM 44.8347 -93.6183 102° East 220 253 2,500 -750 Descending FAA TRACON SMA TRACON (SMA)
06:40PM 44.8300 -93.5936 105° East 216 249 2,500 -150 Level FAA TRACON SMA TRACON (SMA)
06:41PM 44.8247 -93.5706 108° East 205 236 2,400  Descending FAA TRACON SMA TRACON (SMA)
06:41PM 44.8172 -93.5425 111° Southeast 200 230 2,500  Climbing FAA TRACON SMA TRACON (SMA)
06:41PM 44.8106 -93.5183 111° Southeast 209 241 2,400  Descending FAA TRACON SMA TRACON (SMA)
06:42PM 44.8042 -93.4956 112° Southeast 207 238 2,500 -300 Climbing FAA TRACON SMA TRACON (SMA)
06:42PM 44.7967 -93.4678 111° Southeast 197 227 2,200 -750 Descending FAA TRACON SMA TRACON (SMA)
06:42PM 44.7914 -93.4481 111° Southeast 183 211 2,000 -600 Descending FAA TRACON SMA TRACON (SMA)
06:43PM 44.7886 -93.4292 102° East 169 194 1,800 -462 Descending FAA TRACON SMA TRACON (SMA)
06:43PM 44.7989 -93.4161 42° Northeast 148 170 1,700 -308 Descending FAA TRACON SMA TRACON (SMA)
06:43PM 44.8092 -93.4100 23° Northeast 131 151 1,600 -600 Descending FAA TRACON SMA TRACON (SMA)
06:44PM 44.8189 -93.4164 335° Northwest 139 160 1,300 -750 Descending FAA TRACON SMA TRACON (SMA)
06:44PM 44.8236 -93.4319 293° West 120 138 1,100 -450 Descending FAA TRACON SMA TRACON (SMA)
06:44PM 44.8247 -93.4414 279° West 109 125 1,000 -300 Descending FAA TRACON SMA TRACON (SMA)
06:45PM 44.8272 -93.4508 290° West 115 132 900 -300 Descending FAA TRACON SMA TRACON (SMA)

Login

Don't have an account? Register now (free) for customized features, flight alerts, and more!